Seaforth, Minnesota
Current Conditions -  °F | °C
As of 3:53 AM on Sunday 26 Oct 2014 (Local Time) from KRWF Reporting Station
Clear Clear  
Wind Chill:   Ceiling: Unl
Heat Index:   Visibility: 10mi
Dew Point: -2°   Wind: 3mph
Humidity: 73%   Direction: 90°E
Pressure: 30"   Gusts: NA
Location:  44.48°N, 95.33°W
Report Text: KRWF 260853Z AUTO 09003KT 10SM CLR 02/M02 A3000 RMK AO2 SLP161 T00221022 58019
Loading
Personal Weather Stations






























Interactive Weather Map
Tropical Storm Tracking
New forecast layout! Learn more

10-Day Weather Forecast

Advertisements
Track Severe Weather on mobile